This is the latest recevied weather packets stored in our database for station/object DG2GGP-11. If no packets are shown the sender has not sent any weather packets the latest 10 day(s).
| Time | Temp. | Humidity | Pressure | Rain* | Wind** | Luminosity | Snow |
|---|---|---|---|---|---|---|---|
| 1777667357 | 9.44° C | 62% | 1024.8 hPa | 0 mm | - | 0 W/m² | - |
| 1777666757 | 9.44° C | 62% | 1024.8 hPa | 0 mm | - | 0 W/m² | - |
| 1777666157 | 10° C | 61% | 1024.8 hPa | 0 mm | - | 0 W/m² | - |
| 1777665557 | 10.56° C | 60% | 1024.6 hPa | 0 mm | - | 0 W/m² | - |
| 1777664957 | 10.56° C | 58% | 1024.6 hPa | 0 mm | - | 0 W/m² | - |
| 1777664357 | 11.11° C | 57% | 1024.5 hPa | 0 mm | - | 0 W/m² | - |
| 1777663757 | 12.22° C | 55% | 1024.4 hPa | 0 mm | - | 0 W/m² | - |
| 1777663157 | 12.78° C | 53% | 1024.4 hPa | 0 mm | - | 0 W/m² | - |
| 1777662557 | 13.33° C | 51% | 1024.3 hPa | 0 mm | - | 0 W/m² | - |
| 1777661957 | 14.44° C | 48% | 1024.3 hPa | 0 mm | - | 0 W/m² | - |
| 1777661358 | 15.56° C | 44% | 1024.2 hPa | 0 mm | - | 0 W/m² | - |
| 1777660757 | 16.67° C | 37% | 1024.1 hPa | 0 mm | - | 0 W/m² | - |
| 1777660157 | 17.22° C | 34% | 1024 hPa | 0 mm | - | 0 W/m² | - |
| 1777659557 | 17.78° C | 32% | 1024 hPa | 0 mm | - | 1 W/m² | - |
| 1777658957 | 18.33° C | 31% | 1023.9 hPa | 0 mm | - | 1 W/m² | - |
| 1777658357 | 18.89° C | 30% | 1023.9 hPa | 0 mm | - | 2 W/m² | - |
| 1777657757 | 18.89° C | 30% | 1023.8 hPa | 0 mm | - | 2 W/m² | - |
| 1777657157 | 19.44° C | 30% | 1023.8 hPa | 0 mm | - | 2 W/m² | - |
| 1777656557 | 20° C | 28% | 1023.7 hPa | 0 mm | - | 3 W/m² | - |
| 1777655957 | 20.56° C | 28% | 1023.8 hPa | 0 mm | - | 4 W/m² | - |
| 1777655357 | 21.11° C | 26% | 1023.8 hPa | 0 mm | - | 14 W/m² | - |
| 1777654757 | 21.67° C | 26% | 1023.7 hPa | 0 mm | - | 24 W/m² | - |
| 1777654157 | 21.67° C | 25% | 1023.7 hPa | 0 mm | - | 26 W/m² | - |
| 1777653557 | 21.67° C | 24% | 1023.7 hPa | 0 mm | - | 29 W/m² | - |
| 1777652957 | 22.22° C | 24% | 1023.8 hPa | 0 mm | - | 29 W/m² | - |
* Rain latest hour (hover to see other rain measurements)
** Current wind speed in m/s (hover to see current wind gust speed)